Change the Weather History Date:

Wednesday, April 17, 2013

  Actual Average Record
Temperature  
Mean Temperature 42 °F -  
Max Temperature 44 °F 73 °F 96 °F (2006)
Min Temperature 39 °F 47 °F 33 °F (1951)
Degree Days  
Heating Degree Days 24    
Moisture  
Dew Point 43 °F    
Average Humidity 100    
Maximum Humidity 100    
Minimum Humidity 100    
Precipitation  
Precipitation 0.17 in - - ()
Sea Level Pressure  
Sea Level Pressure 29.82 in    
Wind  
Wind Speed 12 mph (NNE)    
Max Wind Speed 23 mph    
Max Gust Speed 30 mph    
Visibility 3 miles    
Events Rain , Thunderstorm    
Averages and records for this station are not official NWS values.
T = Trace of Precipitation, MM = Missing Value Source: NWS Daily Summary

Daily Weather History Graph

Daily Weather History Graph

Search for Another Location

Airport or City:

Trip Planner

Search our weather history database for the weather conditions in past years. The results will help you decide how hot, cold, wet, or windy it might be!

Date:

Astronomy

Apr. 17, 2013 Rise Set
Actual Time 6:57 AM CDT 8:11 PM CDT
Civil Twilight 6:30 AM CDT 8:38 PM CDT
Nautical Twilight 5:58 AM CDT 9:10 PM CDT
Astronomical Twilight 5:25 AM CDT 9:43 PM CDT
Moon 12:15 PM CDT (4/17) 1:46 AM CDT (4/17)
Length of Visible Light 14h 07m
Length of Day
13h 13m
Waxing Crescent, 42% of the Moon is Illuminated
Apr 17
Waxing Crescent
Apr 18
First Quarter
Apr 25
Full
May 2
Last Quarter
May 9
New

Hourly Weather History & Observations

Time (CDT) Temp. Windchill Dew Point Humidity Pressure Visibility Wind Dir Wind Speed Gust Speed Precip Events Conditions
12:10 AM 44.6 °F 38.4 °F 44.6 °F 100% 29.95 in 5.0 mi NE 12.7 mph - N/A   Overcast
12:30 AM 44.6 °F 38.4 °F 44.6 °F 100% 29.96 in 7.0 mi NE 12.7 mph - N/A   Overcast
12:50 AM 44.6 °F 38.4 °F 44.6 °F 100% 29.94 in 5.0 mi NE 12.7 mph - N/A   Overcast
1:10 AM 44.6 °F 38.8 °F 44.6 °F 100% 29.94 in 4.0 mi NE 11.5 mph 17.3 mph N/A   Overcast
1:30 AM 44.6 °F 38.4 °F 44.6 °F 100% 29.94 in 3.0 mi NE 12.7 mph - N/A   Overcast
1:50 AM 42.8 °F 35.8 °F 42.8 °F 100% 29.93 in 2.0 mi NE 13.8 mph - N/A   Overcast
2:10 AM 42.8 °F 37.0 °F 42.8 °F 100% 29.93 in 1.8 mi ENE 10.4 mph - N/A   Overcast
2:30 AM 42.8 °F 36.6 °F 42.8 °F 100% 29.92 in 1.0 mi ENE 11.5 mph - N/A   Overcast
2:50 AM 42.8 °F 38.0 °F 42.8 °F 100% 29.90 in 0.8 mi ENE 8.1 mph - N/A Thunderstorm Overcast
3:10 AM 42.8 °F 36.6 °F 42.8 °F 100% 29.88 in 0.5 mi ENE 11.5 mph - N/A Rain Light Rain
3:30 AM 42.8 °F 38.0 °F 42.8 °F 100% 29.88 in 0.2 mi ENE 8.1 mph - N/A Rain Light Rain
3:50 AM 42.8 °F 37.0 °F 42.8 °F 100% 29.87 in 0.2 mi ENE 10.4 mph - N/A Rain Light Rain
4:10 AM 42.8 °F 38.0 °F 42.8 °F 100% 29.87 in 0.2 mi ENE 8.1 mph - N/A Rain Light Rain
4:30 AM 42.8 °F 40.1 °F 42.8 °F 100% 29.88 in 0.2 mi NE 4.6 mph - N/A Rain Light Rain
4:50 AM 42.8 °F 40.1 °F 42.8 °F 100% 29.87 in 0.2 mi NE 4.6 mph - N/A Rain Light Rain
5:10 AM 42.8 °F 39.3 °F 42.8 °F 100% 29.86 in 0.8 mi NE 5.8 mph - N/A Rain Light Rain
5:30 AM 42.8 °F 38.0 °F 42.8 °F 100% 29.86 in 1.2 mi North 8.1 mph - N/A Rain Light Rain
5:50 AM 42.8 °F 38.0 °F 42.8 °F 100% 29.87 in 1.5 mi North 8.1 mph - N/A Rain Light Rain
6:10 AM 42.8 °F 38.0 °F 42.8 °F 100% 29.86 in 2.0 mi NNE 8.1 mph - N/A Rain Light Rain
6:30 AM 42.8 °F 38.6 °F 42.8 °F 100% 29.86 in 2.0 mi NNE 6.9 mph - N/A Rain Light Rain
6:50 AM 42.8 °F 39.3 °F 42.8 °F 100% 29.86 in 2.0 mi NNE 5.8 mph - N/A Rain Light Rain
7:10 AM 42.8 °F 38.0 °F 42.8 °F 100% 29.87 in 2.5 mi North 8.1 mph - N/A Rain Light Rain
7:30 AM 42.8 °F 37.0 °F 42.8 °F 100% 29.87 in 2.5 mi North 10.4 mph - N/A Rain Light Rain
7:50 AM 42.8 °F 38.0 °F 42.8 °F 100% 29.87 in 1.5 mi North 8.1 mph - N/A Rain Light Rain
8:10 AM 42.8 °F 37.0 °F 42.8 °F 100% 29.87 in 1.8 mi North 10.4 mph - N/A Rain Light Rain
8:30 AM 42.8 °F 37.5 °F 42.8 °F 100% 29.87 in 3.0 mi North 9.2 mph - N/A Rain Light Rain
8:50 AM 42.8 °F 36.6 °F 42.8 °F 100% 29.87 in 3.0 mi North 11.5 mph - N/A Rain Light Rain
9:10 AM 42.8 °F 36.6 °F 42.8 °F 100% 29.88 in 5.0 mi North 11.5 mph - N/A   Overcast
9:30 AM 42.8 °F 37.0 °F 42.8 °F 100% 29.87 in 1.0 mi North 10.4 mph - 0.01 in Rain Light Rain
9:50 AM 42.8 °F 37.0 °F 42.8 °F 100% 29.86 in 2.0 mi North 10.4 mph - 0.01 in Rain Light Rain
10:10 AM 42.8 °F 36.6 °F 42.8 °F 100% 29.86 in 3.0 mi North 11.5 mph - N/A   Overcast
10:30 AM 42.8 °F 36.2 °F 42.8 °F 100% 29.86 in 5.0 mi North 12.7 mph - N/A Rain Light Rain
10:50 AM 42.8 °F 37.0 °F 42.8 °F 100% 29.85 in 5.0 mi North 10.4 mph - N/A   Overcast
11:10 AM 42.8 °F 36.2 °F 42.8 °F 100% 29.84 in 3.0 mi NNE 12.7 mph - N/A   Overcast
11:30 AM 44.6 °F 38.4 °F 44.6 °F 100% 29.84 in 3.0 mi NNE 12.7 mph - N/A   Overcast
11:50 AM 44.6 °F 38.8 °F 44.6 °F 100% 29.85 in 1.8 mi NNE 11.5 mph 16.1 mph N/A   Overcast
12:10 PM 44.6 °F 38.1 °F 44.6 °F 100% 29.82 in 1.5 mi North 13.8 mph - N/A   Overcast
12:30 PM 44.6 °F 39.2 °F 44.6 °F 100% 29.81 in 1.5 mi NNE 10.4 mph - N/A   Overcast
12:50 PM 44.6 °F 38.8 °F 44.6 °F 100% 29.77 in 1.5 mi NNE 11.5 mph - N/A   Overcast
1:10 PM 44.6 °F 40.2 °F 44.6 °F 100% 29.81 in 1.2 mi NNW 8.1 mph - N/A Thunderstorm Overcast
1:30 PM 44.6 °F 41.4 °F 44.6 °F 100% 29.77 in 0.8 mi North 5.8 mph - N/A Rain , Thunderstorm Light Rain
1:50 PM 44.6 °F 38.8 °F 44.6 °F 100% 29.80 in 0.8 mi NNW 11.5 mph - N/A Rain , Thunderstorm Light Rain
2:10 PM 42.8 °F 37.5 °F 42.8 °F 100% 29.79 in 2.0 mi NNW 9.2 mph - 0.04 in Rain , Thunderstorm Light Thunderstorms and Rain
2:50 PM 44.6 °F 39.2 °F 44.6 °F 100% 29.78 in 3.0 mi NNW 10.4 mph - 0.06 in   Overcast
3:30 PM 44.6 °F 40.2 °F 44.6 °F 100% 29.77 in 2.5 mi North 8.1 mph - N/A Rain Light Rain
3:50 PM 44.6 °F 39.7 °F 44.6 °F 100% 29.76 in 3.0 mi North 9.2 mph - N/A Rain Light Rain
4:10 PM 44.6 °F 38.8 °F 44.6 °F 100% 29.76 in 5.0 mi North 11.5 mph - N/A   Overcast
4:30 PM 44.6 °F 38.4 °F 44.6 °F 100% 29.75 in 5.0 mi North 12.7 mph 16.1 mph N/A   Overcast
4:50 PM 44.6 °F 38.4 °F 44.6 °F 100% 29.74 in 7.0 mi North 12.7 mph - N/A   Overcast
5:10 PM 44.6 °F 38.4 °F 44.6 °F 100% 29.73 in 5.0 mi North 12.7 mph 18.4 mph N/A   Overcast
5:30 PM 44.6 °F 38.8 °F 44.6 °F 100% 29.72 in 8.0 mi North 11.5 mph 17.3 mph N/A   Overcast
5:50 PM 44.6 °F 37.4 °F 44.6 °F 100% 29.71 in 10.0 mi North 16.1 mph 19.6 mph N/A   Overcast
6:10 PM 44.6 °F 38.1 °F 44.6 °F 100% 29.72 in 8.0 mi North 13.8 mph - N/A   Overcast
6:30 PM 44.6 °F 37.8 °F 44.6 °F 100% 29.72 in 5.0 mi NNE 15.0 mph 20.7 mph N/A   Overcast
6:50 PM 44.6 °F 37.4 °F 44.6 °F 100% 29.72 in 2.0 mi NNE 16.1 mph 20.7 mph N/A Rain Light Rain
7:10 PM 44.6 °F 38.4 °F 44.6 °F 100% 29.72 in 1.5 mi NNE 12.7 mph 20.7 mph N/A Rain Light Rain
7:30 PM 44.6 °F 37.4 °F 44.6 °F 100% 29.70 in 1.8 mi North 16.1 mph 20.7 mph 0.01 in   Overcast
7:50 PM 42.8 °F 34.0 °F 42.8 °F 100% 29.68 in 2.5 mi North 20.7 mph 27.6 mph 0.01 in Rain Light Rain
8:10 PM 42.8 °F 33.5 °F 42.8 °F 100% 29.67 in 3.0 mi North 23.0 mph 29.9 mph N/A Rain Light Rain
8:30 PM 41.0 °F 32.2 °F 41.0 °F 100% 29.69 in 3.0 mi North 18.4 mph 28.8 mph N/A Rain Light Rain
8:50 PM 41.0 °F 32.8 °F 41.0 °F 100% 29.71 in 3.0 mi NNE 16.1 mph 26.5 mph N/A Rain Light Rain
9:10 PM 41.0 °F 32.5 °F 41.0 °F 100% 29.72 in 1.8 mi NNE 17.3 mph 21.9 mph N/A Rain Light Rain
9:30 PM 41.0 °F 33.9 °F 41.0 °F 100% 29.75 in 2.0 mi North 12.7 mph 17.3 mph N/A Rain Light Rain
9:50 PM 41.0 °F 32.5 °F 41.0 °F 100% 29.75 in 1.8 mi North 17.3 mph 23.0 mph 0.02 in   Overcast
10:00 PM 41.0 °F 31.9 °F 41.0 °F 100% 29.74 in 2.0 mi North 19.6 mph 24.2 mph 0.03 in   Overcast
10:20 PM 41.0 °F 32.5 °F 41.0 °F 100% 29.76 in 2.5 mi NNW 17.3 mph 25.3 mph N/A Rain , Thunderstorm Light Rain
10:40 PM 39.2 °F 29.6 °F 39.2 °F 100% 29.75 in 3.0 mi North 19.6 mph - 0.01 in Rain Light Rain
11:00 PM 39.2 °F 29.8 °F 39.2 °F 100% 29.75 in 2.5 mi North 18.4 mph 27.6 mph 0.02 in Rain Light Rain
11:25 PM 39.2 °F 30.8 °F 39.2 °F 100% 29.74 in 2.0 mi North 15.0 mph 28.8 mph 0.03 in   Overcast
11:40 PM 39.2 °F 29.6 °F 39.2 °F 100% 29.75 in 3.0 mi NNW 19.6 mph 26.5 mph 0.04 in Rain Light Rain